Selfridge Angb Airport Mount Clemens US
ICAO: KMTC
IATA: MTC
Category: Medium
Scheduled Services: No

Elevation: 580 ft
TransAlt. 18000 ft.

Airport Communications:
927 ARW OPS:31.42
APP:119.6
ATIS:125.325
CLNC DEL:119
DEP:119.6
GND:128.3
USCG DETROIT AIR:38.18
WING COMD POST:148.525
PMSV/METRO:34.25
PTD:134.85
TWR:120.15

KMTC Zoom In..

If Map Doesn't Load, Click Here

Runways:

(A) RW 01 length 9000 ft width 150 ft
ILS 110.10 / hdg 8

(B) RW 19 length 9000 ft width 150 ft
ILS 110.10 / hdg 188

Location; KMTC
Day. 21 / Time. 15.56 Zulu
* Altimeter: 29.76
* Temperature: 29° c. 84.2°f.
* Wind from: 220° Speed 15 kn with Gusts up to 28 kn.
Dewpoint: 20° c.
Visibility: 10 Statute Miles.
Clouds: Few 3500 ft.
Clouds: Broken 12000 ft.

KMTC 211556Z 22015G28KT 10SM FEW035 BKN120 29/20 A2976 RMK AO2A PK WND 21033/02 SLP078 T02900204


Wind From 220°
Speed 15 kn.

 
 
jpsmedia.com for Web Design worldairports.se 2018   terms of use